sensor_id;sensor_type;location;lat;lon;timestamp;P1;durP1;ratioP1;P2;durP2;ratioP2
34296;SDS011;20564;42.902;25.336;2023-02-03T00:01:34;3.30;;;1.58;;
34296;SDS011;20564;42.902;25.336;2023-02-03T00:04:01;1.38;;;0.60;;
34296;SDS011;20564;42.902;25.336;2023-02-03T00:06:28;2.25;;;0.68;;
34296;SDS011;20564;42.902;25.336;2023-02-03T00:08:57;2.47;;;1.25;;
34296;SDS011;20564;42.902;25.336;2023-02-03T00:11:29;1.75;;;0.85;;
34296;SDS011;20564;42.902;25.336;2023-02-03T00:13:57;1.17;;;0.50;;
34296;SDS011;20564;42.902;25.336;2023-02-03T00:16:23;2.38;;;1.08;;
34296;SDS011;20564;42.902;25.336;2023-02-03T00:18:50;1.20;;;0.65;;
34296;SDS011;20564;42.902;25.336;2023-02-03T00:21:17;1.00;;;0.52;;
34296;SDS011;20564;42.902;25.336;2023-02-03T00:23:43;2.00;;;0.73;;
34296;SDS011;20564;42.902;25.336;2023-02-03T00:26:11;0.73;;;0.50;;
34296;SDS011;20564;42.902;25.336;2023-02-03T00:28:40;1.17;;;0.57;;
34296;SDS011;20564;42.902;25.336;2023-02-03T00:31:20;0.77;;;0.52;;
34296;SDS011;20564;42.902;25.336;2023-02-03T00:33:55;1.13;;;0.40;;
34296;SDS011;20564;42.902;25.336;2023-02-03T00:36:23;1.73;;;0.60;;
34296;SDS011;20564;42.902;25.336;2023-02-03T00:41:17;1.08;;;0.20;;
34296;SDS011;20564;42.902;25.336;2023-02-03T00:43:46;0.93;;;0.30;;
34296;SDS011;20564;42.902;25.336;2023-02-03T00:46:13;1.70;;;0.63;;
34296;SDS011;20564;42.902;25.336;2023-02-03T00:48:40;1.08;;;0.40;;
34296;SDS011;20564;42.902;25.336;2023-02-03T00:51:07;0.25;;;0.20;;
34296;SDS011;20564;42.902;25.336;2023-02-03T00:53:34;1.55;;;0.40;;
34296;SDS011;20564;42.902;25.336;2023-02-03T00:56:00;0.73;;;0.20;;
34296;SDS011;20564;42.902;25.336;2023-02-03T00:58:27;0.13;;;0.08;;
34296;SDS011;20564;42.902;25.336;2023-02-03T01:00:54;0.90;;;0.40;;
34296;SDS011;20564;42.902;25.336;2023-02-03T01:05:49;1.55;;;0.28;;
34296;SDS011;20564;42.902;25.336;2023-02-03T01:08:16;2.30;;;0.50;;
34296;SDS011;20564;42.902;25.336;2023-02-03T01:10:43;1.10;;;0.38;;
34296;SDS011;20564;42.902;25.336;2023-02-03T01:13:09;0.90;;;0.28;;
34296;SDS011;20564;42.902;25.336;2023-02-03T01:15:36;0.60;;;0.20;;
34296;SDS011;20564;42.902;25.336;2023-02-03T01:18:03;0.10;;;0.10;;
34296;SDS011;20564;42.902;25.336;2023-02-03T01:20:30;0.30;;;0.30;;
34296;SDS011;20564;42.902;25.336;2023-02-03T01:22:56;0.77;;;0.10;;
34296;SDS011;20564;42.902;25.336;2023-02-03T01:25:23;2.45;;;0.35;;
34296;SDS011;20564;42.902;25.336;2023-02-03T01:27:50;2.50;;;0.50;;
34296;SDS011;20564;42.902;25.336;2023-02-03T01:30:17;3.65;;;1.13;;
34296;SDS011;20564;42.902;25.336;2023-02-03T01:32:44;0.90;;;0.50;;
34296;SDS011;20564;42.902;25.336;2023-02-03T01:35:10;0.13;;;0.13;;
34296;SDS011;20564;42.902;25.336;2023-02-03T01:37:37;0.47;;;0.30;;
34296;SDS011;20564;42.902;25.336;2023-02-03T01:40:04;0.52;;;0.28;;
34296;SDS011;20564;42.902;25.336;2023-02-03T01:42:32;1.23;;;0.30;;
34296;SDS011;20564;42.902;25.336;2023-02-03T01:44:59;1.35;;;0.52;;
34296;SDS011;20564;42.902;25.336;2023-02-03T01:47:33;0.53;;;0.30;;
34296;SDS011;20564;42.902;25.336;2023-02-03T01:50:10;0.95;;;0.68;;
34296;SDS011;20564;42.902;25.336;2023-02-03T01:52:41;0.22;;;0.20;;
34296;SDS011;20564;42.902;25.336;2023-02-03T01:55:11;1.35;;;0.40;;
34296;SDS011;20564;42.902;25.336;2023-02-03T01:57:53;0.47;;;0.22;;
34296;SDS011;20564;42.902;25.336;2023-02-03T02:00:25;0.43;;;0.25;;
34296;SDS011;20564;42.902;25.336;2023-02-03T02:02:53;0.43;;;0.20;;
34296;SDS011;20564;42.902;25.336;2023-02-03T02:07:59;0.82;;;0.68;;
34296;SDS011;20564;42.902;25.336;2023-02-03T02:10:29;1.27;;;0.52;;
34296;SDS011;20564;42.902;25.336;2023-02-03T02:15:26;0.17;;;0.10;;
34296;SDS011;20564;42.902;25.336;2023-02-03T02:18:07;0.40;;;0.13;;
34296;SDS011;20564;42.902;25.336;2023-02-03T02:34:46;0.85;;;0.30;;
34296;SDS011;20564;42.902;25.336;2023-02-03T02:37:21;0.30;;;0.20;;
34296;SDS011;20564;42.902;25.336;2023-02-03T02:45:47;0.45;;;0.10;;
34296;SDS011;20564;42.902;25.336;2023-02-03T02:48:20;0.30;;;0.20;;
34296;SDS011;20564;42.902;25.336;2023-02-03T02:50:48;1.05;;;0.13;;
34296;SDS011;20564;42.902;25.336;2023-02-03T02:53:20;0.70;;;0.35;;
34296;SDS011;20564;42.902;25.336;2023-02-03T02:55:51;0.40;;;0.35;;
34296;SDS011;20564;42.902;25.336;2023-02-03T02:58:19;0.52;;;0.13;;
34296;SDS011;20564;42.902;25.336;2023-02-03T03:00:47;0.30;;;0.20;;
34296;SDS011;20564;42.902;25.336;2023-02-03T03:03:21;0.40;;;0.20;;
34296;SDS011;20564;42.902;25.336;2023-02-03T03:05:51;0.10;;;0.10;;
34296;SDS011;20564;42.902;25.336;2023-02-03T03:08:23;1.17;;;0.43;;
34296;SDS011;20564;42.902;25.336;2023-02-03T03:10:56;1.35;;;0.22;;
34296;SDS011;20564;42.902;25.336;2023-02-03T03:13:27;0.60;;;0.30;;
34296;SDS011;20564;42.902;25.336;2023-02-03T03:15:59;0.08;;;0.08;;
34296;SDS011;20564;42.902;25.336;2023-02-03T03:18:32;0.40;;;0.20;;
34296;SDS011;20564;42.902;25.336;2023-02-03T03:21:04;0.35;;;0.35;;
34296;SDS011;20564;42.902;25.336;2023-02-03T03:23:37;0.17;;;0.10;;
34296;SDS011;20564;42.902;25.336;2023-02-03T03:28:44;1.27;;;0.57;;
34296;SDS011;20564;42.902;25.336;2023-02-03T03:31:18;0.35;;;0.10;;
34296;SDS011;20564;42.902;25.336;2023-02-03T03:33:46;0.40;;;0.30;;
34296;SDS011;20564;42.902;25.336;2023-02-03T03:38:45;1.33;;;1.08;;
34296;SDS011;20564;42.902;25.336;2023-02-03T03:43:55;1.27;;;0.65;;
34296;SDS011;20564;42.902;25.336;2023-02-03T03:46:26;2.05;;;0.57;;
34296;SDS011;20564;42.902;25.336;2023-02-03T03:49:03;1.27;;;0.43;;
34296;SDS011;20564;42.902;25.336;2023-02-03T03:51:34;0.63;;;0.20;;
34296;SDS011;20564;42.902;25.336;2023-02-03T03:54:07;1.45;;;0.22;;
34296;SDS011;20564;42.902;25.336;2023-02-03T03:59:43;0.20;;;0.10;;
34296;SDS011;20564;42.902;25.336;2023-02-03T04:02:12;0.93;;;0.28;;
34296;SDS011;20564;42.902;25.336;2023-02-03T04:04:41;0.22;;;0.20;;
34296;SDS011;20564;42.902;25.336;2023-02-03T04:07:11;0.70;;;0.20;;
34296;SDS011;20564;42.902;25.336;2023-02-03T04:09:39;1.23;;;0.30;;
34296;SDS011;20564;42.902;25.336;2023-02-03T04:12:12;1.38;;;0.30;;
34296;SDS011;20564;42.902;25.336;2023-02-03T04:14:48;1.33;;;0.38;;
34296;SDS011;20564;42.902;25.336;2023-02-03T04:17:15;0.47;;;0.20;;
34296;SDS011;20564;42.902;25.336;2023-02-03T04:19:46;0.93;;;0.40;;
34296;SDS011;20564;42.902;25.336;2023-02-03T04:22:13;0.20;;;0.10;;
34296;SDS011;20564;42.902;25.336;2023-02-03T04:24:40;0.65;;;0.57;;
34296;SDS011;20564;42.902;25.336;2023-02-03T04:27:06;0.20;;;0.15;;
34296;SDS011;20564;42.902;25.336;2023-02-03T04:29:33;0.47;;;0.28;;
34296;SDS011;20564;42.902;25.336;2023-02-03T04:32:00;0.80;;;0.40;;
34296;SDS011;20564;42.902;25.336;2023-02-03T04:34:27;7.18;;;0.60;;
34296;SDS011;20564;42.902;25.336;2023-02-03T04:36:54;2.60;;;0.50;;
34296;SDS011;20564;42.902;25.336;2023-02-03T04:39:20;1.23;;;0.40;;
34296;SDS011;20564;42.902;25.336;2023-02-03T04:41:47;2.10;;;0.73;;
34296;SDS011;20564;42.902;25.336;2023-02-03T04:44:14;1.73;;;0.90;;
34296;SDS011;20564;42.902;25.336;2023-02-03T04:46:41;0.40;;;0.40;;
34296;SDS011;20564;42.902;25.336;2023-02-03T04:49:08;1.42;;;0.50;;
34296;SDS011;20564;42.902;25.336;2023-02-03T04:51:37;1.73;;;0.85;;
34296;SDS011;20564;42.902;25.336;2023-02-03T04:54:04;1.43;;;0.40;;
34296;SDS011;20564;42.902;25.336;2023-02-03T04:56:30;1.38;;;0.80;;
34296;SDS011;20564;42.902;25.336;2023-02-03T04:58:57;0.77;;;0.28;;
34296;SDS011;20564;42.902;25.336;2023-02-03T05:01:24;0.57;;;0.20;;
34296;SDS011;20564;42.902;25.336;2023-02-03T05:03:51;0.70;;;0.35;;
34296;SDS011;20564;42.902;25.336;2023-02-03T05:06:25;2.05;;;0.28;;
34296;SDS011;20564;42.902;25.336;2023-02-03T05:08:54;0.43;;;0.43;;
34296;SDS011;20564;42.902;25.336;2023-02-03T05:11:21;7.00;;;1.00;;
34296;SDS011;20564;42.902;25.336;2023-02-03T05:13:48;1.02;;;0.32;;
34296;SDS011;20564;42.902;25.336;2023-02-03T05:16:15;1.48;;;0.80;;
34296;SDS011;20564;42.902;25.336;2023-02-03T05:18:42;3.42;;;1.27;;
34296;SDS011;20564;42.902;25.336;2023-02-03T05:21:09;0.97;;;0.50;;
34296;SDS011;20564;42.902;25.336;2023-02-03T05:23:36;0.88;;;0.40;;
34296;SDS011;20564;42.902;25.336;2023-02-03T05:26:03;1.00;;;0.73;;
34296;SDS011;20564;42.902;25.336;2023-02-03T05:28:30;0.33;;;0.27;;
34296;SDS011;20564;42.902;25.336;2023-02-03T05:30:57;0.40;;;0.40;;
34296;SDS011;20564;42.902;25.336;2023-02-03T05:35:51;1.83;;;0.50;;
34296;SDS011;20564;42.902;25.336;2023-02-03T05:38:18;1.50;;;0.60;;
34296;SDS011;20564;42.902;25.336;2023-02-03T05:40:48;3.33;;;0.85;;
34296;SDS011;20564;42.902;25.336;2023-02-03T05:43:34;1.80;;;0.57;;
34296;SDS011;20564;42.902;25.336;2023-02-03T05:46:02;0.98;;;0.43;;
34296;SDS011;20564;42.902;25.336;2023-02-03T05:48:30;2.13;;;1.25;;
34296;SDS011;20564;42.902;25.336;2023-02-03T05:50:57;1.65;;;0.75;;
34296;SDS011;20564;42.902;25.336;2023-02-03T05:53:24;0.90;;;0.50;;
34296;SDS011;20564;42.902;25.336;2023-02-03T05:55:52;2.30;;;0.63;;
34296;SDS011;20564;42.902;25.336;2023-02-03T05:58:19;4.72;;;1.35;;
34296;SDS011;20564;42.902;25.336;2023-02-03T06:00:46;2.63;;;1.10;;
34296;SDS011;20564;42.902;25.336;2023-02-03T06:03:13;2.50;;;0.90;;
34296;SDS011;20564;42.902;25.336;2023-02-03T06:05:41;2.05;;;0.77;;
34296;SDS011;20564;42.902;25.336;2023-02-03T06:08:09;1.33;;;0.98;;
34296;SDS011;20564;42.902;25.336;2023-02-03T06:10:36;5.27;;;0.70;;
34296;SDS011;20564;42.902;25.336;2023-02-03T06:13:07;2.72;;;1.13;;
34296;SDS011;20564;42.902;25.336;2023-02-03T06:15:38;2.25;;;1.10;;
34296;SDS011;20564;42.902;25.336;2023-02-03T06:18:06;1.45;;;0.43;;
34296;SDS011;20564;42.902;25.336;2023-02-03T06:20:33;2.70;;;1.05;;
34296;SDS011;20564;42.902;25.336;2023-02-03T06:23:00;0.90;;;0.53;;
34296;SDS011;20564;42.902;25.336;2023-02-03T06:25:27;1.55;;;0.90;;
34296;SDS011;20564;42.902;25.336;2023-02-03T06:27:54;2.45;;;1.30;;
34296;SDS011;20564;42.902;25.336;2023-02-03T06:30:21;1.83;;;0.52;;
34296;SDS011;20564;42.902;25.336;2023-02-03T06:35:16;0.98;;;0.50;;
34296;SDS011;20564;42.902;25.336;2023-02-03T06:37:44;1.52;;;0.73;;
34296;SDS011;20564;42.902;25.336;2023-02-03T06:40:11;1.52;;;0.60;;
34296;SDS011;20564;42.902;25.336;2023-02-03T06:42:38;3.08;;;0.55;;
34296;SDS011;20564;42.902;25.336;2023-02-03T06:45:05;0.80;;;0.67;;
34296;SDS011;20564;42.902;25.336;2023-02-03T06:47:33;1.58;;;1.10;;
34296;SDS011;20564;42.902;25.336;2023-02-03T06:50:01;3.67;;;0.43;;
34296;SDS011;20564;42.902;25.336;2023-02-03T06:52:28;2.33;;;0.73;;
34296;SDS011;20564;42.902;25.336;2023-02-03T06:54:54;2.65;;;0.50;;
34296;SDS011;20564;42.902;25.336;2023-02-03T06:57:21;2.05;;;0.90;;
34296;SDS011;20564;42.902;25.336;2023-02-03T06:59:48;1.58;;;0.73;;
34296;SDS011;20564;42.902;25.336;2023-02-03T07:02:15;2.53;;;0.65;;
34296;SDS011;20564;42.902;25.336;2023-02-03T07:04:42;1.10;;;0.70;;
34296;SDS011;20564;42.902;25.336;2023-02-03T07:07:10;2.63;;;0.95;;
34296;SDS011;20564;42.902;25.336;2023-02-03T07:09:38;1.77;;;0.90;;
34296;SDS011;20564;42.902;25.336;2023-02-03T07:12:05;2.60;;;0.75;;
34296;SDS011;20564;42.902;25.336;2023-02-03T07:14:33;2.40;;;0.63;;
34296;SDS011;20564;42.902;25.336;2023-02-03T07:17:01;2.47;;;1.00;;
34296;SDS011;20564;42.902;25.336;2023-02-03T07:19:28;2.70;;;1.10;;
34296;SDS011;20564;42.902;25.336;2023-02-03T07:21:55;1.83;;;0.93;;
34296;SDS011;20564;42.902;25.336;2023-02-03T07:24:22;2.70;;;0.95;;
34296;SDS011;20564;42.902;25.336;2023-02-03T07:26:48;4.07;;;0.90;;
34296;SDS011;20564;42.902;25.336;2023-02-03T07:29:15;2.40;;;1.30;;
34296;SDS011;20564;42.902;25.336;2023-02-03T07:31:42;2.92;;;0.80;;
34296;SDS011;20564;42.902;25.336;2023-02-03T07:34:09;2.85;;;1.10;;
34296;SDS011;20564;42.902;25.336;2023-02-03T07:36:35;2.05;;;0.85;;
34296;SDS011;20564;42.902;25.336;2023-02-03T07:39:02;2.80;;;0.95;;
34296;SDS011;20564;42.902;25.336;2023-02-03T07:41:29;3.55;;;0.77;;
34296;SDS011;20564;42.902;25.336;2023-02-03T07:43:56;2.20;;;0.93;;
34296;SDS011;20564;42.902;25.336;2023-02-03T07:46:22;3.03;;;0.93;;
34296;SDS011;20564;42.902;25.336;2023-02-03T07:48:49;2.63;;;0.87;;
34296;SDS011;20564;42.902;25.336;2023-02-03T07:51:16;0.88;;;0.40;;
34296;SDS011;20564;42.902;25.336;2023-02-03T07:53:43;2.63;;;0.95;;
34296;SDS011;20564;42.902;25.336;2023-02-03T07:56:10;3.53;;;1.10;;
34296;SDS011;20564;42.902;25.336;2023-02-03T07:58:37;1.88;;;0.70;;
34296;SDS011;20564;42.902;25.336;2023-02-03T08:01:11;3.10;;;1.00;;
34296;SDS011;20564;42.902;25.336;2023-02-03T08:03:41;2.67;;;1.00;;
34296;SDS011;20564;42.902;25.336;2023-02-03T08:06:08;2.42;;;1.27;;
34296;SDS011;20564;42.902;25.336;2023-02-03T08:08:34;1.80;;;0.73;;
34296;SDS011;20564;42.902;25.336;2023-02-03T08:11:01;2.10;;;0.85;;
34296;SDS011;20564;42.902;25.336;2023-02-03T08:13:28;2.42;;;1.00;;
34296;SDS011;20564;42.902;25.336;2023-02-03T08:15:55;2.90;;;0.82;;
34296;SDS011;20564;42.902;25.336;2023-02-03T08:18:22;1.35;;;0.77;;
34296;SDS011;20564;42.902;25.336;2023-02-03T08:20:49;3.05;;;1.13;;
34296;SDS011;20564;42.902;25.336;2023-02-03T08:23:15;7.57;;;2.95;;
34296;SDS011;20564;42.902;25.336;2023-02-03T08:25:42;4.88;;;1.65;;
34296;SDS011;20564;42.902;25.336;2023-02-03T08:28:09;3.10;;;1.35;;
34296;SDS011;20564;42.902;25.336;2023-02-03T08:30:36;3.22;;;1.20;;
34296;SDS011;20564;42.902;25.336;2023-02-03T08:33:03;2.85;;;1.17;;
34296;SDS011;20564;42.902;25.336;2023-02-03T08:35:30;2.05;;;1.00;;
34296;SDS011;20564;42.902;25.336;2023-02-03T08:37:57;3.55;;;0.75;;
34296;SDS011;20564;42.902;25.336;2023-02-03T08:40:24;4.72;;;1.20;;
34296;SDS011;20564;42.902;25.336;2023-02-03T08:42:51;3.67;;;0.80;;
34296;SDS011;20564;42.902;25.336;2023-02-03T08:45:18;1.37;;;0.67;;
34296;SDS011;20564;42.902;25.336;2023-02-03T08:47:45;3.20;;;1.98;;
34296;SDS011;20564;42.902;25.336;2023-02-03T08:50:12;6.80;;;1.67;;
34296;SDS011;20564;42.902;25.336;2023-02-03T08:52:39;5.65;;;1.40;;
34296;SDS011;20564;42.902;25.336;2023-02-03T08:55:05;2.22;;;1.08;;
34296;SDS011;20564;42.902;25.336;2023-02-03T08:57:33;2.43;;;0.80;;
34296;SDS011;20564;42.902;25.336;2023-02-03T09:00:01;1.48;;;0.52;;
34296;SDS011;20564;42.902;25.336;2023-02-03T09:02:29;3.00;;;0.95;;
34296;SDS011;20564;42.902;25.336;2023-02-03T09:04:56;1.48;;;0.77;;
34296;SDS011;20564;42.902;25.336;2023-02-03T09:07:23;2.03;;;1.00;;
34296;SDS011;20564;42.902;25.336;2023-02-03T09:09:50;3.07;;;1.23;;
34296;SDS011;20564;42.902;25.336;2023-02-03T09:12:17;2.85;;;0.90;;
34296;SDS011;20564;42.902;25.336;2023-02-03T09:14:44;2.10;;;0.77;;
34296;SDS011;20564;42.902;25.336;2023-02-03T09:17:11;2.60;;;0.75;;
34296;SDS011;20564;42.902;25.336;2023-02-03T09:19:37;1.05;;;0.85;;
34296;SDS011;20564;42.902;25.336;2023-02-03T09:22:04;2.00;;;0.90;;
34296;SDS011;20564;42.902;25.336;2023-02-03T09:24:31;4.60;;;1.13;;
34296;SDS011;20564;42.902;25.336;2023-02-03T09:26:58;1.30;;;0.70;;
34296;SDS011;20564;42.902;25.336;2023-02-03T09:29:26;2.40;;;0.88;;
34296;SDS011;20564;42.902;25.336;2023-02-03T09:31:53;1.10;;;0.57;;
34296;SDS011;20564;42.902;25.336;2023-02-03T09:34:20;1.92;;;0.60;;
34296;SDS011;20564;42.902;25.336;2023-02-03T09:36:47;3.22;;;0.93;;
34296;SDS011;20564;42.902;25.336;2023-02-03T09:39:14;1.27;;;0.52;;
34296;SDS011;20564;42.902;25.336;2023-02-03T09:44:23;2.38;;;1.05;;
34296;SDS011;20564;42.902;25.336;2023-02-03T09:47:02;2.92;;;0.90;;
34296;SDS011;20564;42.902;25.336;2023-02-03T09:49:38;1.30;;;0.55;;
34296;SDS011;20564;42.902;25.336;2023-02-03T09:52:13;3.83;;;0.98;;
34296;SDS011;20564;42.902;25.336;2023-02-03T09:55:02;1.48;;;0.50;;
34296;SDS011;20564;42.902;25.336;2023-02-03T09:57:41;1.58;;;0.60;;
34296;SDS011;20564;42.902;25.336;2023-02-03T10:00:20;4.57;;;1.63;;
34296;SDS011;20564;42.902;25.336;2023-02-03T10:08:31;6.65;;;2.58;;
34296;SDS011;20564;42.902;25.336;2023-02-03T10:17:29;4.10;;;1.05;;
34296;SDS011;20564;42.902;25.336;2023-02-03T10:23:33;4.95;;;0.55;;
34296;SDS011;20564;42.902;25.336;2023-02-03T10:26:05;3.13;;;1.25;;
34296;SDS011;20564;42.902;25.336;2023-02-03T10:28:39;3.30;;;1.48;;
34296;SDS011;20564;42.902;25.336;2023-02-03T10:31:15;4.32;;;1.38;;
34296;SDS011;20564;42.902;25.336;2023-02-03T10:33:45;2.42;;;1.02;;
34296;SDS011;20564;42.902;25.336;2023-02-03T10:41:17;4.93;;;1.67;;
34296;SDS011;20564;42.902;25.336;2023-02-03T10:43:46;5.82;;;1.73;;
34296;SDS011;20564;42.902;25.336;2023-02-03T10:48:52;3.08;;;1.25;;
34296;SDS011;20564;42.902;25.336;2023-02-03T10:51:27;2.80;;;1.25;;
34296;SDS011;20564;42.902;25.336;2023-02-03T10:53:58;2.70;;;1.25;;
34296;SDS011;20564;42.902;25.336;2023-02-03T10:56:28;5.05;;;2.22;;
34296;SDS011;20564;42.902;25.336;2023-02-03T10:58:58;2.65;;;1.10;;
34296;SDS011;20564;42.902;25.336;2023-02-03T11:01:47;4.70;;;1.25;;
34296;SDS011;20564;42.902;25.336;2023-02-03T11:04:30;2.20;;;0.88;;
34296;SDS011;20564;42.902;25.336;2023-02-03T11:06:59;2.90;;;1.08;;
34296;SDS011;20564;42.902;25.336;2023-02-03T11:09:35;3.58;;;1.23;;
34296;SDS011;20564;42.902;25.336;2023-02-03T11:14:38;3.63;;;1.33;;
34296;SDS011;20564;42.902;25.336;2023-02-03T11:17:07;4.75;;;2.75;;
34296;SDS011;20564;42.902;25.336;2023-02-03T11:19:35;10.27;;;4.07;;
34296;SDS011;20564;42.902;25.336;2023-02-03T11:22:04;4.30;;;1.58;;
34296;SDS011;20564;42.902;25.336;2023-02-03T11:24:32;4.90;;;2.38;;
34296;SDS011;20564;42.902;25.336;2023-02-03T11:27:05;4.60;;;1.77;;
34296;SDS011;20564;42.902;25.336;2023-02-03T11:29:45;4.65;;;1.83;;
34296;SDS011;20564;42.902;25.336;2023-02-03T11:37:56;3.33;;;1.15;;
34296;SDS011;20564;42.902;25.336;2023-02-03T11:40:27;3.15;;;1.63;;
34296;SDS011;20564;42.902;25.336;2023-02-03T11:43:00;3.30;;;1.33;;
34296;SDS011;20564;42.902;25.336;2023-02-03T11:45:40;2.33;;;0.88;;
34296;SDS011;20564;42.902;25.336;2023-02-03T12:07:10;2.55;;;1.10;;
34296;SDS011;20564;42.902;25.336;2023-02-03T12:15:41;8.02;;;1.30;;
34296;SDS011;20564;42.902;25.336;2023-02-03T12:27:11;1.88;;;1.02;;
34296;SDS011;20564;42.902;25.336;2023-02-03T12:30:00;4.88;;;2.30;;
34296;SDS011;20564;42.902;25.336;2023-02-03T12:37:57;0.95;;;0.57;;
34296;SDS011;20564;42.902;25.336;2023-02-03T12:43:48;2.22;;;1.25;;
34296;SDS011;20564;42.902;25.336;2023-02-03T12:46:20;3.35;;;0.82;;
34296;SDS011;20564;42.902;25.336;2023-02-03T12:49:14;2.50;;;0.80;;
34296;SDS011;20564;42.902;25.336;2023-02-03T12:51:56;0.63;;;0.47;;
34296;SDS011;20564;42.902;25.336;2023-02-03T12:54:42;1.52;;;0.77;;
34296;SDS011;20564;42.902;25.336;2023-02-03T12:57:16;1.45;;;0.90;;
34296;SDS011;20564;42.902;25.336;2023-02-03T13:02:41;0.55;;;0.45;;
34296;SDS011;20564;42.902;25.336;2023-02-03T13:05:18;1.27;;;0.40;;
34296;SDS011;20564;42.902;25.336;2023-02-03T13:07:51;1.27;;;0.88;;
34296;SDS011;20564;42.902;25.336;2023-02-03T13:10:33;0.95;;;0.55;;
34296;SDS011;20564;42.902;25.336;2023-02-03T13:13:10;1.48;;;0.63;;
34296;SDS011;20564;42.902;25.336;2023-02-03T13:15:44;0.75;;;0.20;;
34296;SDS011;20564;42.902;25.336;2023-02-03T13:20:55;3.47;;;1.02;;
34296;SDS011;20564;42.902;25.336;2023-02-03T13:23:22;4.43;;;1.77;;
34296;SDS011;20564;42.902;25.336;2023-02-03T13:28:34;2.20;;;0.52;;
34296;SDS011;20564;42.902;25.336;2023-02-03T13:31:31;0.77;;;0.55;;
34296;SDS011;20564;42.902;25.336;2023-02-03T13:37:13;6.78;;;3.00;;
34296;SDS011;20564;42.902;25.336;2023-02-03T13:40:11;3.28;;;1.65;;
34296;SDS011;20564;42.902;25.336;2023-02-03T13:42:51;2.85;;;1.95;;
34296;SDS011;20564;42.902;25.336;2023-02-03T13:45:33;3.50;;;1.45;;
34296;SDS011;20564;42.902;25.336;2023-02-03T13:50:40;2.88;;;0.93;;
34296;SDS011;20564;42.902;25.336;2023-02-03T13:53:12;2.93;;;1.17;;
34296;SDS011;20564;42.902;25.336;2023-02-03T13:58:31;2.92;;;1.40;;
34296;SDS011;20564;42.902;25.336;2023-02-03T14:11:49;6.95;;;3.33;;
34296;SDS011;20564;42.902;25.336;2023-02-03T14:16:50;10.73;;;5.38;;
34296;SDS011;20564;42.902;25.336;2023-02-03T14:21:51;10.77;;;4.38;;
34296;SDS011;20564;42.902;25.336;2023-02-03T14:24:20;6.88;;;3.28;;
34296;SDS011;20564;42.902;25.336;2023-02-03T14:26:49;3.42;;;1.75;;
34296;SDS011;20564;42.902;25.336;2023-02-03T14:31:56;4.13;;;2.15;;
34296;SDS011;20564;42.902;25.336;2023-02-03T14:34:32;3.72;;;2.03;;
34296;SDS011;20564;42.902;25.336;2023-02-03T14:45:53;2.72;;;1.35;;
34296;SDS011;20564;42.902;25.336;2023-02-03T15:05:55;1.95;;;0.95;;
34296;SDS011;20564;42.902;25.336;2023-02-03T15:13:53;8.15;;;1.70;;
34296;SDS011;20564;42.902;25.336;2023-02-03T15:16:22;1.98;;;0.77;;
34296;SDS011;20564;42.902;25.336;2023-02-03T15:18:59;2.53;;;0.95;;
34296;SDS011;20564;42.902;25.336;2023-02-03T15:21:32;1.70;;;0.90;;
34296;SDS011;20564;42.902;25.336;2023-02-03T15:24:14;2.72;;;1.48;;
34296;SDS011;20564;42.902;25.336;2023-02-03T15:26:45;2.03;;;1.20;;
34296;SDS011;20564;42.902;25.336;2023-02-03T15:29:21;3.78;;;1.67;;
34296;SDS011;20564;42.902;25.336;2023-02-03T15:34:30;2.15;;;1.13;;
34296;SDS011;20564;42.902;25.336;2023-02-03T15:37:04;2.58;;;1.05;;
34296;SDS011;20564;42.902;25.336;2023-02-03T15:42:27;3.55;;;1.25;;
34296;SDS011;20564;42.902;25.336;2023-02-03T15:45:14;2.47;;;1.35;;
34296;SDS011;20564;42.902;25.336;2023-02-03T15:47:54;1.30;;;0.82;;
34296;SDS011;20564;42.902;25.336;2023-02-03T15:50:33;12.95;;;5.15;;
34296;SDS011;20564;42.902;25.336;2023-02-03T15:53:09;3.22;;;1.27;;
34296;SDS011;20564;42.902;25.336;2023-02-03T15:55:45;3.55;;;0.88;;
34296;SDS011;20564;42.902;25.336;2023-02-03T15:58:22;5.80;;;1.75;;
34296;SDS011;20564;42.902;25.336;2023-02-03T16:00:53;5.28;;;2.08;;
34296;SDS011;20564;42.902;25.336;2023-02-03T16:03:35;4.20;;;1.73;;
34296;SDS011;20564;42.902;25.336;2023-02-03T16:06:18;1.15;;;0.68;;
34296;SDS011;20564;42.902;25.336;2023-02-03T16:08:56;2.65;;;1.20;;
34296;SDS011;20564;42.902;25.336;2023-02-03T16:14:03;3.05;;;1.15;;
34296;SDS011;20564;42.902;25.336;2023-02-03T16:16:35;1.17;;;0.70;;
34296;SDS011;20564;42.902;25.336;2023-02-03T16:19:20;2.50;;;1.15;;
34296;SDS011;20564;42.902;25.336;2023-02-03T16:27:54;5.35;;;0.82;;
34296;SDS011;20564;42.902;25.336;2023-02-03T16:30:14;3.70;;;0.77;;
34296;SDS011;20564;42.902;25.336;2023-02-03T16:35:57;2.60;;;0.90;;
34296;SDS011;20564;42.902;25.336;2023-02-03T16:38:49;1.15;;;0.80;;
34296;SDS011;20564;42.902;25.336;2023-02-03T16:41:35;2.35;;;1.05;;
34296;SDS011;20564;42.902;25.336;2023-02-03T16:44:21;2.75;;;1.30;;
34296;SDS011;20564;42.902;25.336;2023-02-03T16:50:12;6.43;;;1.60;;
34296;SDS011;20564;42.902;25.336;2023-02-03T16:53:05;2.97;;;0.95;;
34296;SDS011;20564;42.902;25.336;2023-02-03T16:55:38;5.53;;;1.58;;
34296;SDS011;20564;42.902;25.336;2023-02-03T16:58:05;6.07;;;1.65;;
34296;SDS011;20564;42.902;25.336;2023-02-03T17:00:32;4.97;;;1.63;;
34296;SDS011;20564;42.902;25.336;2023-02-03T17:03:02;5.43;;;2.28;;
34296;SDS011;20564;42.902;25.336;2023-02-03T17:05:29;5.95;;;2.00;;
34296;SDS011;20564;42.902;25.336;2023-02-03T17:07:57;5.30;;;2.72;;
34296;SDS011;20564;42.902;25.336;2023-02-03T17:10:24;5.25;;;1.92;;
34296;SDS011;20564;42.902;25.336;2023-02-03T17:12:53;5.50;;;2.40;;
34296;SDS011;20564;42.902;25.336;2023-02-03T17:15:19;6.82;;;2.00;;
34296;SDS011;20564;42.902;25.336;2023-02-03T17:17:46;5.57;;;2.73;;
34296;SDS011;20564;42.902;25.336;2023-02-03T17:20:13;8.07;;;2.60;;
34296;SDS011;20564;42.902;25.336;2023-02-03T17:22:40;7.07;;;1.90;;
34296;SDS011;20564;42.902;25.336;2023-02-03T17:25:08;8.05;;;2.45;;
34296;SDS011;20564;42.902;25.336;2023-02-03T17:27:35;5.18;;;2.50;;
34296;SDS011;20564;42.902;25.336;2023-02-03T17:30:02;5.30;;;2.25;;
34296;SDS011;20564;42.902;25.336;2023-02-03T17:34:56;6.90;;;3.42;;
34296;SDS011;20564;42.902;25.336;2023-02-03T17:37:23;10.82;;;3.00;;
34296;SDS011;20564;42.902;25.336;2023-02-03T17:39:50;9.90;;;4.47;;
34296;SDS011;20564;42.902;25.336;2023-02-03T17:42:34;10.77;;;3.95;;
34296;SDS011;20564;42.902;25.336;2023-02-03T17:45:18;11.45;;;4.28;;
34296;SDS011;20564;42.902;25.336;2023-02-03T17:48:03;10.15;;;3.70;;
34296;SDS011;20564;42.902;25.336;2023-02-03T17:50:47;9.88;;;5.22;;
34296;SDS011;20564;42.902;25.336;2023-02-03T17:53:31;11.52;;;4.05;;
34296;SDS011;20564;42.902;25.336;2023-02-03T17:56:03;9.43;;;2.85;;
34296;SDS011;20564;42.902;25.336;2023-02-03T17:58:34;4.65;;;2.22;;
34296;SDS011;20564;42.902;25.336;2023-02-03T18:01:15;5.63;;;2.20;;
34296;SDS011;20564;42.902;25.336;2023-02-03T18:03:45;7.45;;;2.50;;
34296;SDS011;20564;42.902;25.336;2023-02-03T18:06:14;7.40;;;2.45;;
34296;SDS011;20564;42.902;25.336;2023-02-03T18:08:46;7.45;;;3.22;;
34296;SDS011;20564;42.902;25.336;2023-02-03T18:11:15;9.38;;;3.45;;
34296;SDS011;20564;42.902;25.336;2023-02-03T18:13:45;14.20;;;6.22;;
34296;SDS011;20564;42.902;25.336;2023-02-03T18:16:18;10.38;;;4.03;;
34296;SDS011;20564;42.902;25.336;2023-02-03T18:18:48;11.98;;;3.53;;
34296;SDS011;20564;42.902;25.336;2023-02-03T18:21:17;9.02;;;3.60;;
34296;SDS011;20564;42.902;25.336;2023-02-03T18:23:46;6.85;;;3.15;;
34296;SDS011;20564;42.902;25.336;2023-02-03T18:26:14;9.05;;;2.72;;